Terminal Aerodrome Forecast
Issued by NWS Cleveland, OH

Home | Current Version | Previous Version | Text Only | Print | Product List | Glossary On
Versions: 1 2 3 4 5 6 7 8 9 10 11 12 13 14 15 16 17 18 19
000
FTUS41 KCLE 281100
TAFCAK
TAF
KCAK 281132Z 2812/2912 31010KT 2SM -SNRA BR BKN005 OVC010
     FM281215 31010KT 3SM -SNRA BR BKN006 OVC010
     FM281330 29010KT P6SM OVC012
     FM281800 31010KT P6SM OVC022
     FM290000 32005KT P6SM BKN035
     FM290800 35003KT P6SM BKN030=

USA.gov is the U.S. government's official web portal to all federal, state and local government web resources and services.